Test XHTML 1.0 Strict Page for WU-History Testing
Station Historical Data
 
Daily Summary for August 23, 2017 Units:  Both    English   Metric
« Previous Day
Next Day »
Daily Weekly Monthly Yearly Custom
  Current: High: Low: Average:
Temperature: 54.3 °F /  12.4 °C 69.6 °F /  20.9 °C 54.3 °F /  12.4 °C 62.7 °F /  17.1 °C
Dew Point: 54.3 °F /  12.4 °C 65.0 °F /  18.3 °C 54.3 °F /  12.4 °C 60.4 °F /  15.8 °C
Humidity: 100 % 100 % 69 % 93 %
Wind Speed: 0.0 mph /  0 km/h 9.8 mph /  15.8 km/h - 1.8 mph /  2.9 km/h
Wind Gust: 0.0 mph /  0 km/h 9.8 mph /  15.8 km/h - -
Wind:Calm - - South
Pressure: 29.94 in /  1013.8 hPa 29.97 in /  1014.8 hPa 29.87 in /  1011.4 hPa -
Precipitation: 0.09 in /  2.29 mm      
Historical Graphs
 
 
Weather-Above Climate History
Untitled
Tabular Data for August 23, 2017
Time Temperature Dew Point Pressure Wind Wind Speed Wind Gust Humidity Rainfall Rate (Hourly) solar Conditions
00:00 62.6 °F /  17 °C 62.6 °F /  17 °C 29.97 in /  1014.8 hPa SSW 2.3 mph /  3.7 km/h 2.3 mph /  3.7 km/h 100 % 0.00 in /  0 mm 17.5 W/m2 CLR
00:05 62.6 °F /  17 °C 62.6 °F /  17 °C 29.95 in /  1014.1 hPa SSE 5.8 mph /  9.3 km/h 5.8 mph /  9.3 km/h 100 % 0.00 in /  0 mm 0.0 W/m2 CLR
00:10 62.4 °F /  16.9 °C 62.4 °F /  16.9 °C 29.95 in /  1014.1 hPa East 3.5 mph /  5.6 km/h 3.5 mph /  5.6 km/h 100 % 0.00 in /  0 mm 0.0 W/m2 CLR
00:15 62.6 °F /  17 °C 62.6 °F /  17 °C 29.97 in /  1014.8 hPa SE 6.3 mph /  10.1 km/h 6.3 mph /  10.1 km/h 100 % 0.00 in /  0 mm 15.0 W/m2
00:29 63.3 °F /  17.4 °C 63.3 °F /  17.4 °C 29.96 in /  1014.4 hPa South 8.1 mph /  13 km/h 8.1 mph /  13 km/h 100 % 0.00 in /  0 mm 15.0 W/m2
00:34 63.5 °F /  17.5 °C 63.2 °F /  17.3 °C 29.97 in /  1014.8 hPa SE 4.6 mph /  7.4 km/h 4.6 mph /  7.4 km/h 99 % 0.00 in /  0 mm 0.0 W/m2
00:39 63.5 °F /  17.5 °C 63.2 °F /  17.3 °C 29.97 in /  1014.8 hPa SE 2.6 mph /  4.2 km/h 2.6 mph /  4.2 km/h 99 % 0.00 in /  0 mm 0.0 W/m2 OVC
00:44 63.3 °F /  17.4 °C 63.3 °F /  17.4 °C 29.95 in /  1014.1 hPa SSE 6.9 mph /  11.1 km/h 6.9 mph /  11.1 km/h 100 % 0.00 in /  0 mm 20.0 W/m2 OVC
00:49 63.3 °F /  17.4 °C 63.3 °F /  17.4 °C 29.96 in /  1014.4 hPa SE 2.8 mph /  4.5 km/h 2.8 mph /  4.5 km/h 100 % 0.00 in /  0 mm 0.0 W/m2 OVC
00:54 63.3 °F /  17.4 °C 63.3 °F /  17.4 °C 29.96 in /  1014.4 hPa SSE 2.3 mph /  3.7 km/h 2.3 mph /  3.7 km/h 100 % 0.00 in /  0 mm 0.0 W/m2 OVC
00:59 63.3 °F /  17.4 °C 63.3 °F /  17.4 °C 29.97 in /  1014.8 hPa SW 1.2 mph /  1.9 km/h 1.2 mph /  1.9 km/h 100 % 0.00 in /  0 mm 22.5 W/m2 OVC
01:04 63.3 °F /  17.4 °C 63.3 °F /  17.4 °C 29.96 in /  1014.4 hPa SSE 9.8 mph /  15.8 km/h 9.8 mph /  15.8 km/h 100 % 0.00 in /  0 mm 0.0 W/m2 OVC
01:09 63.1 °F /  17.3 °C 63.1 °F /  17.3 °C 29.96 in /  1014.4 hPa NNE 4.1 mph /  6.6 km/h 4.1 mph /  6.6 km/h 100 % 0.00 in /  0 mm 20.0 W/m2 OVC
01:14 63.0 °F /  17.2 °C 63.0 °F /  17.2 °C 29.95 in /  1014.1 hPa South 4.6 mph /  7.4 km/h 4.6 mph /  7.4 km/h 100 % 0.00 in /  0 mm 0.0 W/m2 OVC
01:19 63.0 °F /  17.2 °C 63.0 °F /  17.2 °C 29.95 in /  1014.1 hPa SSE 2.5 mph /  4 km/h 2.5 mph /  4 km/h 100 % 0.00 in /  0 mm 20.0 W/m2 OVC
01:26 63.0 °F /  17.2 °C 63.0 °F /  17.2 °C 29.95 in /  1014.1 hPa SSE 3.5 mph /  5.6 km/h 3.5 mph /  5.6 km/h 100 % 0.00 in /  0 mm 20.0 W/m2 OVC
01:31 62.8 °F /  17.1 °C 62.8 °F /  17.1 °C 29.94 in /  1013.8 hPa ESE 2.3 mph /  3.7 km/h   100 % 0.00 in /  0 mm 0.0 W/m2 OVC
01:36 63.0 °F /  17.2 °C 63.0 °F /  17.2 °C 29.94 in /  1013.8 hPa SSE 1.2 mph /  1.9 km/h 1.2 mph /  1.9 km/h 100 % 0.00 in /  0 mm 17.5 W/m2 OVC
01:41 63.0 °F /  17.2 °C 63.0 °F /  17.2 °C 29.95 in /  1014.1 hPa SE 3.9 mph /  6.3 km/h 3.9 mph /  6.3 km/h 100 % 0.00 in /  0 mm 17.5 W/m2 OVC
01:46 62.6 °F /  17 °C 62.6 °F /  17 °C 29.95 in /  1014.1 hPa SSW 3.5 mph /  5.6 km/h 3.5 mph /  5.6 km/h 100 % 0.00 in /  0 mm 0.0 W/m2 OVC
01:51 62.6 °F /  17 °C 62.6 °F /  17 °C 29.94 in /  1013.8 hPa SSE 6.9 mph /  11.1 km/h 6.9 mph /  11.1 km/h 100 % 0.00 in /  0 mm 17.5 W/m2
01:56 62.4 °F /  16.9 °C 62.4 °F /  16.9 °C 29.95 in /  1014.1 hPa SSW 5.8 mph /  9.3 km/h 5.8 mph /  9.3 km/h 100 % 0.00 in /  0 mm 17.5 W/m2 CLR
02:01 62.4 °F /  16.9 °C 62.4 °F /  16.9 °C 29.94 in /  1013.8 hPa SSE 6.9 mph /  11.1 km/h 6.9 mph /  11.1 km/h 100 % 0.00 in /  0 mm 20.0 W/m2 CLR
02:06 61.9 °F /  16.6 °C 61.9 °F /  16.6 °C 29.94 in /  1013.8 hPa NNW 5.9 mph /  9.5 km/h 5.9 mph /  9.5 km/h 100 % 0.00 in /  0 mm 20.0 W/m2
02:11 61.9 °F /  16.6 °C 61.9 °F /  16.6 °C 29.94 in /  1013.8 hPa SE 5.8 mph /  9.3 km/h 5.8 mph /  9.3 km/h 100 % 0.00 in /  0 mm 0.0 W/m2 CLR
02:16 61.7 °F /  16.5 °C 61.7 °F /  16.5 °C 29.93 in /  1013.4 hPa SE 4.8 mph /  7.7 km/h 4.8 mph /  7.7 km/h 100 % 0.00 in /  0 mm 17.5 W/m2 CLR
02:21 61.7 °F /  16.5 °C 61.7 °F /  16.5 °C 29.94 in /  1013.8 hPa SSE 5.2 mph /  8.4 km/h 5.2 mph /  8.4 km/h 100 % 0.00 in /  0 mm 20.0 W/m2
02:27 61.9 °F /  16.6 °C 61.9 °F /  16.6 °C 29.95 in /  1014.1 hPa SSW 2.3 mph /  3.7 km/h 2.3 mph /  3.7 km/h 100 % 0.00 in /  0 mm 0.0 W/m2 OVC
02:32 61.9 °F /  16.6 °C 61.9 °F /  16.6 °C 29.93 in /  1013.4 hPa SSE 3.9 mph /  6.3 km/h 3.9 mph /  6.3 km/h 100 % 0.00 in /  0 mm 15.0 W/m2 OVC
02:37 61.9 °F /  16.6 °C 61.9 °F /  16.6 °C 29.93 in /  1013.4 hPa SSE 3.5 mph /  5.6 km/h 3.5 mph /  5.6 km/h 100 % 0.00 in /  0 mm 17.5 W/m2 OVC
02:42 61.9 °F /  16.6 °C 61.9 °F /  16.6 °C 29.93 in /  1013.4 hPa ESE 4.8 mph /  7.7 km/h 4.8 mph /  7.7 km/h 100 % 0.00 in /  0 mm 0.0 W/m2 OVC
02:47 62.1 °F /  16.7 °C 62.1 °F /  16.7 °C 29.94 in /  1013.8 hPa SSE 2.6 mph /  4.2 km/h 2.6 mph /  4.2 km/h 100 % 0.00 in /  0 mm 20.0 W/m2 OVC
02:52 61.7 °F /  16.5 °C 61.7 °F /  16.5 °C 29.92 in /  1013.1 hPa SE 1.2 mph /  1.9 km/h 1.2 mph /  1.9 km/h 100 % 0.00 in /  0 mm 17.5 W/m2 OVC
02:57 61.7 °F /  16.5 °C 61.7 °F /  16.5 °C 29.93 in /  1013.4 hPa ESE 2.3 mph /  3.7 km/h 2.3 mph /  3.7 km/h 100 % 0.00 in /  0 mm 0.0 W/m2 OVC
03:02 61.9 °F /  16.6 °C 61.9 °F /  16.6 °C 29.93 in /  1013.4 hPa ESE 3.5 mph /  5.6 km/h 3.5 mph /  5.6 km/h 100 % 0.00 in /  0 mm 17.5 W/m2 OVC
03:07 61.7 °F /  16.5 °C 61.7 °F /  16.5 °C 29.92 in /  1013.1 hPa SSE 4.7 mph /  7.6 km/h 4.7 mph /  7.6 km/h 100 % 0.00 in /  0 mm 17.5 W/m2 OVC
03:12 61.9 °F /  16.6 °C 61.9 °F /  16.6 °C 29.93 in /  1013.4 hPa SE 2.3 mph /  3.7 km/h 2.3 mph /  3.7 km/h 100 % 0.00 in /  0 mm 0.0 W/m2 OVC
03:17 61.9 °F /  16.6 °C 61.9 °F /  16.6 °C 29.93 in /  1013.4 hPa South 4.6 mph /  7.4 km/h 4.6 mph /  7.4 km/h 100 % 0.00 in /  0 mm 17.5 W/m2 OVC
03:22 61.9 °F /  16.6 °C 61.9 °F /  16.6 °C 29.93 in /  1013.4 hPa East 2.3 mph /  3.7 km/h 2.3 mph /  3.7 km/h 100 % 0.00 in /  0 mm 0.0 W/m2 OVC
03:27 61.7 °F /  16.5 °C 61.7 °F /  16.5 °C 29.93 in /  1013.4 hPa SE 1.4 mph /  2.3 km/h 1.4 mph /  2.3 km/h 100 % 0.00 in /  0 mm 0.0 W/m2 OVC
03:32 61.7 °F /  16.5 °C 61.7 °F /  16.5 °C 29.91 in /  1012.8 hPa South 1.2 mph /  1.9 km/h   100 % 0.00 in /  0 mm 15.0 W/m2 OVC
03:37 61.7 °F /  16.5 °C 61.7 °F /  16.5 °C 29.92 in /  1013.1 hPa SSE 3.7 mph /  6 km/h 3.7 mph /  6 km/h 100 % 0.00 in /  0 mm 0.0 W/m2 OVC
03:42 61.7 °F /  16.5 °C 61.7 °F /  16.5 °C 29.91 in /  1012.8 hPa SSE 4.1 mph /  6.6 km/h 4.1 mph /  6.6 km/h 100 % 0.00 in /  0 mm 0.0 W/m2
03:47 61.7 °F /  16.5 °C 61.7 °F /  16.5 °C 29.91 in /  1012.8 hPa SSE 4.7 mph /  7.6 km/h 4.7 mph /  7.6 km/h 100 % 0.00 in /  0 mm 17.5 W/m2 OVC
03:52 61.5 °F /  16.4 °C 61.5 °F /  16.4 °C 29.92 in /  1013.1 hPa SSE 5.9 mph /  9.5 km/h 5.9 mph /  9.5 km/h 100 % 0.00 in /  0 mm 0.0 W/m2 OVC
03:57 61.7 °F /  16.5 °C 61.7 °F /  16.5 °C 29.92 in /  1013.1 hPa SSE 3.5 mph /  5.6 km/h 3.5 mph /  5.6 km/h 100 % 0.00 in /  0 mm 0.0 W/m2 OVC
04:02 61.7 °F /  16.5 °C 61.7 °F /  16.5 °C 29.91 in /  1012.8 hPa SE 4.8 mph /  7.7 km/h 4.8 mph /  7.7 km/h 100 % 0.00 in /  0 mm 17.5 W/m2 OVC
04:07 61.5 °F /  16.4 °C 61.5 °F /  16.4 °C 29.90 in /  1012.4 hPa ESE 5.0 mph /  8 km/h 5.0 mph /  8 km/h 100 % 0.00 in /  0 mm 0.0 W/m2 OVC
04:13 61.7 °F /  16.5 °C 61.7 °F /  16.5 °C 29.90 in /  1012.4 hPa South 3.5 mph /  5.6 km/h 3.5 mph /  5.6 km/h 100 % 0.00 in /  0 mm 0.0 W/m2 OVC
04:18 61.7 °F /  16.5 °C 61.7 °F /  16.5 °C 29.90 in /  1012.4 hPa South 1.2 mph /  1.9 km/h 1.2 mph /  1.9 km/h 100 % 0.00 in /  0 mm 20.0 W/m2 OVC
04:23 61.5 °F /  16.4 °C 61.5 °F /  16.4 °C 29.89 in /  1012.1 hPa South 3.5 mph /  5.6 km/h 3.5 mph /  5.6 km/h 100 % 0.00 in /  0 mm 0.0 W/m2 OVC
04:28 61.7 °F /  16.5 °C 61.7 °F /  16.5 °C 29.90 in /  1012.4 hPa SSE 3.5 mph /  5.6 km/h 3.5 mph /  5.6 km/h 100 % 0.00 in /  0 mm 0.0 W/m2 OVC
04:33 61.5 °F /  16.4 °C 61.5 °F /  16.4 °C 29.89 in /  1012.1 hPa SSE 5.8 mph /  9.3 km/h 5.8 mph /  9.3 km/h 100 % 0.00 in /  0 mm 0.0 W/m2 OVC
04:36 61.5 °F /  16.4 °C 61.5 °F /  16.4 °C 29.88 in /  1011.7 hPa ESE 0.7 mph /  1.1 km/h   100 % 0.00 in /  0 mm 0.0 W/m2 OVC
04:41 61.3 °F /  16.3 °C 61.3 °F /  16.3 °C 29.89 in /  1012.1 hPa ESE 2.3 mph /  3.7 km/h 2.3 mph /  3.7 km/h 100 % 0.00 in /  0 mm 0.0 W/m2 OVC
04:46 61.2 °F /  16.2 °C 61.2 °F /  16.2 °C 29.89 in /  1012.1 hPa ESE 4.6 mph /  7.4 km/h 4.6 mph /  7.4 km/h 100 % 0.00 in /  0 mm 0.0 W/m2 OVC
04:51 61.2 °F /  16.2 °C 61.2 °F /  16.2 °C 29.90 in /  1012.4 hPa SSE 2.5 mph /  4 km/h 2.5 mph /  4 km/h 100 % 0.00 in /  0 mm 0.0 W/m2 OVC
04:56 61.2 °F /  16.2 °C 61.2 °F /  16.2 °C 29.90 in /  1012.4 hPa SSE 3.5 mph /  5.6 km/h 3.5 mph /  5.6 km/h 100 % 0.00 in /  0 mm 0.0 W/m2 OVC
05:01 61.2 °F /  16.2 °C 61.2 °F /  16.2 °C 29.88 in /  1011.7 hPa SE 2.3 mph /  3.7 km/h 2.3 mph /  3.7 km/h 100 % 0.00 in /  0 mm 0.0 W/m2 OVC
05:06 61.2 °F /  16.2 °C 61.2 °F /  16.2 °C 29.88 in /  1011.7 hPa West 6.9 mph /  11.1 km/h 6.9 mph /  11.1 km/h 100 % 0.00 in /  0 mm 0.0 W/m2 OVC
05:11 61.2 °F /  16.2 °C 61.2 °F /  16.2 °C 29.88 in /  1011.7 hPa SE 4.7 mph /  7.6 km/h 4.7 mph /  7.6 km/h 100 % 0.00 in /  0 mm 20.0 W/m2 OVC
05:16 61.0 °F /  16.1 °C 61.0 °F /  16.1 °C 29.88 in /  1011.7 hPa ESE 3.7 mph /  6 km/h 3.7 mph /  6 km/h 100 % 0.00 in /  0 mm 0.0 W/m2 OVC
05:21 61.0 °F /  16.1 °C 61.0 °F /  16.1 °C 29.88 in /  1011.7 hPa East 4.8 mph /  7.7 km/h 4.8 mph /  7.7 km/h 100 % 0.00 in /  0 mm 0.0 W/m2 OVC
05:27 61.0 °F /  16.1 °C 61.0 °F /  16.1 °C 29.88 in /  1011.7 hPa South 3.5 mph /  5.6 km/h 3.5 mph /  5.6 km/h 100 % 0.00 in /  0 mm 15.0 W/m2 OVC
05:32 61.0 °F /  16.1 °C 61.0 °F /  16.1 °C 29.88 in /  1011.7 hPa SE 3.5 mph /  5.6 km/h 3.5 mph /  5.6 km/h 100 % 0.00 in /  0 mm 0.0 W/m2 OVC
05:37 60.8 °F /  16 °C 60.8 °F /  16 °C 29.88 in /  1011.7 hPa SW 5.5 mph /  8.9 km/h 5.5 mph /  8.9 km/h 100 % 0.00 in /  0 mm 0.0 W/m2 OVC
05:42 60.8 °F /  16 °C 60.8 °F /  16 °C 29.88 in /  1011.7 hPa ESE 3.5 mph /  5.6 km/h 3.5 mph /  5.6 km/h 100 % 0.00 in /  0 mm 15.0 W/m2 OVC
05:47 61.0 °F /  16.1 °C 61.0 °F /  16.1 °C 29.88 in /  1011.7 hPa SSE 1.2 mph /  1.9 km/h   100 % 0.00 in /  0 mm 0.0 W/m2 OVC
05:52 60.8 °F /  16 °C 60.8 °F /  16 °C 29.88 in /  1011.7 hPa SSE 1.5 mph /  2.4 km/h 1.5 mph /  2.4 km/h 100 % 0.00 in /  0 mm 0.0 W/m2 OVC
05:57 60.8 °F /  16 °C 60.8 °F /  16 °C 29.88 in /  1011.7 hPa ESE 2.3 mph /  3.7 km/h 2.3 mph /  3.7 km/h 100 % 0.01 in /  0.25 mm 20.0 W/m2 RA
06:02 60.8 °F /  16 °C 60.8 °F /  16 °C 29.88 in /  1011.7 hPa SSE 1.9 mph /  3.1 km/h   100 % 0.02 in /  0.51 mm 17.5 W/m2 RA
06:07 60.6 °F /  15.9 °C 60.6 °F /  15.9 °C 29.87 in /  1011.4 hPa South 4.6 mph /  7.4 km/h 4.6 mph /  7.4 km/h 100 % 0.02 in /  0.51 mm 20.0 W/m2 RA
06:12 60.6 °F /  15.9 °C 60.6 °F /  15.9 °C 29.88 in /  1011.7 hPa SSE 1.9 mph /  3.1 km/h 1.9 mph /  3.1 km/h 100 % 0.02 in /  0.51 mm 20.0 W/m2 RA
06:17 60.6 °F /  15.9 °C 60.6 °F /  15.9 °C 29.88 in /  1011.7 hPa South 2.5 mph /  4 km/h 2.5 mph /  4 km/h 100 % 0.02 in /  0.51 mm 0.0 W/m2
06:22 60.6 °F /  15.9 °C 60.6 °F /  15.9 °C 29.88 in /  1011.7 hPa East 3.0 mph /  4.8 km/h 3.0 mph /  4.8 km/h 100 % 0.02 in /  0.51 mm 20.0 W/m2 CLR
06:27 60.6 °F /  15.9 °C 60.6 °F /  15.9 °C 29.88 in /  1011.7 hPa West 1.9 mph /  3.1 km/h 1.9 mph /  3.1 km/h 100 % 0.02 in /  0.51 mm 20.0 W/m2
06:32 60.6 °F /  15.9 °C 60.6 °F /  15.9 °C 29.88 in /  1011.7 hPa Calm     100 % 0.02 in /  0.51 mm 0.6 W/m2 CLR
06:37 60.6 °F /  15.9 °C 60.6 °F /  15.9 °C 29.88 in /  1011.7 hPa SSE 1.2 mph /  1.9 km/h 1.2 mph /  1.9 km/h 100 % 0.02 in /  0.51 mm 20.0 W/m2 CLR
06:42 60.6 °F /  15.9 °C 60.6 °F /  15.9 °C 29.88 in /  1011.7 hPa SE 1.2 mph /  1.9 km/h   100 % 0.02 in /  0.51 mm 25.0 W/m2 CLR
06:47 60.6 °F /  15.9 °C 60.6 °F /  15.9 °C 29.88 in /  1011.7 hPa SSE 1.2 mph /  1.9 km/h 1.2 mph /  1.9 km/h 100 % 0.02 in /  0.51 mm 1.3 W/m2 CLR
06:52 60.6 °F /  15.9 °C 60.6 °F /  15.9 °C 29.88 in /  1011.7 hPa SSE 1.2 mph /  1.9 km/h 1.2 mph /  1.9 km/h 100 % 0.02 in /  0.51 mm 22.5 W/m2 CLR
06:57 60.6 °F /  15.9 °C 60.6 °F /  15.9 °C 29.88 in /  1011.7 hPa Calm     100 % 0.01 in /  0.25 mm 25.0 W/m2 CLR
07:02 60.6 °F /  15.9 °C 60.6 °F /  15.9 °C 29.87 in /  1011.4 hPa Calm     100 % 0.00 in /  0 mm 1.9 W/m2 CLR
07:07 60.6 °F /  15.9 °C 60.6 °F /  15.9 °C 29.88 in /  1011.7 hPa SSE 2.3 mph /  3.7 km/h 2.3 mph /  3.7 km/h 100 % 0.00 in /  0 mm 20.0 W/m2 CLR
07:13 60.6 °F /  15.9 °C 60.6 °F /  15.9 °C 29.87 in /  1011.4 hPa SSE 1.2 mph /  1.9 km/h   100 % 0.00 in /  0 mm 25.0 W/m2 CLR
07:18 60.6 °F /  15.9 °C 60.6 °F /  15.9 °C 29.87 in /  1011.4 hPa SE 3.5 mph /  5.6 km/h 3.5 mph /  5.6 km/h 100 % 0.01 in /  0.25 mm 22.5 W/m2 RA
07:23 60.6 °F /  15.9 °C 60.6 °F /  15.9 °C 29.87 in /  1011.4 hPa Calm     100 % 0.01 in /  0.25 mm 22.5 W/m2 RA
07:28 60.6 °F /  15.9 °C 60.6 °F /  15.9 °C 29.88 in /  1011.7 hPa SE 0.8 mph /  1.3 km/h   100 % 0.02 in /  0.51 mm 1.4 W/m2 RA
07:33 60.6 °F /  15.9 °C 60.6 °F /  15.9 °C 29.88 in /  1011.7 hPa South 2.3 mph /  3.7 km/h 2.3 mph /  3.7 km/h 100 % 0.02 in /  0.51 mm 20.0 W/m2 RA
07:38 60.6 °F /  15.9 °C 60.6 °F /  15.9 °C 29.88 in /  1011.7 hPa SSE 1.2 mph /  1.9 km/h   100 % 0.02 in /  0.51 mm 20.0 W/m2
07:43 60.6 °F /  15.9 °C 60.6 °F /  15.9 °C 29.87 in /  1011.4 hPa Calm     100 % 0.02 in /  0.51 mm 20.0 W/m2 CLR
07:48 60.6 °F /  15.9 °C 60.6 °F /  15.9 °C 29.88 in /  1011.7 hPa SSE 1.2 mph /  1.9 km/h 1.2 mph /  1.9 km/h 100 % 0.02 in /  0.51 mm 32.5 W/m2 RA
07:53 60.6 °F /  15.9 °C 60.6 °F /  15.9 °C 29.88 in /  1011.7 hPa SSE 1.2 mph /  1.9 km/h   100 % 0.02 in /  0.51 mm 22.5 W/m2 RA
07:58 60.6 °F /  15.9 °C 60.6 °F /  15.9 °C 29.89 in /  1012.1 hPa Calm     100 % 0.05 in /  1.27 mm 13.6 W/m2 RA
08:03 60.6 °F /  15.9 °C 60.6 °F /  15.9 °C 29.88 in /  1011.7 hPa SSE 1.7 mph /  2.7 km/h 1.7 mph /  2.7 km/h 100 % 0.06 in /  1.52 mm 20.0 W/m2 RA
08:08 60.4 °F /  15.8 °C 60.4 °F /  15.8 °C 29.89 in /  1012.1 hPa Calm     100 % 0.06 in /  1.52 mm 20.0 W/m2 RA
08:13 60.6 °F /  15.9 °C 60.6 °F /  15.9 °C 29.89 in /  1012.1 hPa Calm     100 % 0.06 in /  1.52 mm 11.1 W/m2 OVC
08:18 60.6 °F /  15.9 °C 60.6 °F /  15.9 °C 29.88 in /  1011.7 hPa Calm     100 % 0.05 in /  1.27 mm 40.0 W/m2 OVC
08:23 60.6 °F /  15.9 °C 60.6 °F /  15.9 °C 29.89 in /  1012.1 hPa Calm     100 % 0.05 in /  1.27 mm 20.0 W/m2 OVC
08:28 60.6 °F /  15.9 °C 60.6 °F /  15.9 °C 29.88 in /  1011.7 hPa Calm     100 % 0.05 in /  1.27 mm 12.7 W/m2 OVC
08:33 60.6 °F /  15.9 °C 60.6 °F /  15.9 °C 29.89 in /  1012.1 hPa Calm     100 % 0.05 in /  1.27 mm 22.5 W/m2 OVC
08:38 60.6 °F /  15.9 °C 60.6 °F /  15.9 °C 29.89 in /  1012.1 hPa Calm     100 % 0.05 in /  1.27 mm 19.8 W/m2 OVC
08:43 60.6 °F /  15.9 °C 60.6 °F /  15.9 °C 29.89 in /  1012.1 hPa Calm     100 % 0.05 in /  1.27 mm 25.7 W/m2 OVC
08:49 60.6 °F /  15.9 °C 60.6 °F /  15.9 °C 29.88 in /  1011.7 hPa Calm     100 % 0.04 in /  1.02 mm 22.5 W/m2 OVC
08:54 60.8 °F /  16 °C 60.8 °F /  16 °C 29.90 in /  1012.4 hPa Calm     100 % 0.04 in /  1.02 mm 24.8 W/m2 OVC
08:59 60.6 °F /  15.9 °C 60.6 °F /  15.9 °C 29.88 in /  1011.7 hPa Calm     100 % 0.02 in /  0.51 mm 39.9 W/m2 OVC
09:04 60.8 °F /  16 °C 60.8 °F /  16 °C 29.88 in /  1011.7 hPa Calm     100 % 0.00 in /  0 mm 72.5 W/m2 OVC
09:09 61.0 °F /  16.1 °C 61.0 °F /  16.1 °C 29.89 in /  1012.1 hPa Calm     100 % 0.01 in /  0.25 mm 42.8 W/m2 RA
09:14 61.0 °F /  16.1 °C 61.0 °F /  16.1 °C 29.89 in /  1012.1 hPa Calm     100 % 0.01 in /  0.25 mm 40.7 W/m2 RA
09:19 61.0 °F /  16.1 °C 61.0 °F /  16.1 °C 29.88 in /  1011.7 hPa Calm     100 % 0.01 in /  0.25 mm 37.6 W/m2 OVC
09:24 61.0 °F /  16.1 °C 61.0 °F /  16.1 °C 29.88 in /  1011.7 hPa Calm     100 % 0.01 in /  0.25 mm 32.0 W/m2 OVC
09:29 61.0 °F /  16.1 °C 61.0 °F /  16.1 °C 29.89 in /  1012.1 hPa Calm     100 % 0.01 in /  0.25 mm 30.7 W/m2 OVC
09:34 61.0 °F /  16.1 °C 61.0 °F /  16.1 °C 29.88 in /  1011.7 hPa Calm     100 % 0.01 in /  0.25 mm 52.7 W/m2 OVC
09:39 61.2 °F /  16.2 °C 61.2 °F /  16.2 °C 29.88 in /  1011.7 hPa Calm     100 % 0.01 in /  0.25 mm 44.7 W/m2 OVC
09:44 61.2 °F /  16.2 °C 61.2 °F /  16.2 °C 29.88 in /  1011.7 hPa Calm     100 % 0.01 in /  0.25 mm 39.1 W/m2 OVC
09:49 61.2 °F /  16.2 °C 61.2 °F /  16.2 °C 29.88 in /  1011.7 hPa Calm     100 % 0.01 in /  0.25 mm 37.8 W/m2 OVC
09:54 61.2 °F /  16.2 °C 61.2 °F /  16.2 °C 29.88 in /  1011.7 hPa Calm     100 % 0.01 in /  0.25 mm 34.7 W/m2 OVC
09:59 61.2 °F /  16.2 °C 61.2 °F /  16.2 °C 29.88 in /  1011.7 hPa Calm     100 % 0.01 in /  0.25 mm 55.0 W/m2 OVC
10:04 61.3 °F /  16.3 °C 61.3 °F /  16.3 °C 29.89 in /  1012.1 hPa Calm     100 % 0.00 in /  0 mm 74.1 W/m2 OVC
10:09 61.5 °F /  16.4 °C 61.5 °F /  16.4 °C 29.88 in /  1011.7 hPa Calm     100 % 0.00 in /  0 mm 67.4 W/m2 OVC
10:14 61.7 °F /  16.5 °C 61.7 °F /  16.5 °C 29.88 in /  1011.7 hPa Calm     100 % 0.00 in /  0 mm 50.0 W/m2 OVC
10:20 61.7 °F /  16.5 °C 61.7 °F /  16.5 °C 29.89 in /  1012.1 hPa Calm     100 % 0.00 in /  0 mm 59.7 W/m2 OVC
10:25 61.7 °F /  16.5 °C 61.7 °F /  16.5 °C 29.89 in /  1012.1 hPa Calm     100 % 0.00 in /  0 mm 58.1 W/m2 OVC
10:30 61.9 °F /  16.6 °C 61.9 °F /  16.6 °C 29.89 in /  1012.1 hPa Calm     100 % 0.00 in /  0 mm 75.0 W/m2 OVC
10:35 62.1 °F /  16.7 °C 62.1 °F /  16.7 °C 29.90 in /  1012.4 hPa Calm     100 % 0.00 in /  0 mm 71.8 W/m2 OVC
10:40 62.1 °F /  16.7 °C 62.1 °F /  16.7 °C 29.90 in /  1012.4 hPa Calm     100 % 0.00 in /  0 mm 61.1 W/m2 OVC
10:45 61.9 °F /  16.6 °C 61.9 °F /  16.6 °C 29.89 in /  1012.1 hPa Calm     100 % 0.00 in /  0 mm 67.5 W/m2 OVC
10:50 62.1 °F /  16.7 °C 62.1 °F /  16.7 °C 29.89 in /  1012.1 hPa Calm     100 % 0.00 in /  0 mm 91.3 W/m2 OVC
10:55 62.2 °F /  16.8 °C 62.2 °F /  16.8 °C 29.89 in /  1012.1 hPa Calm     100 % 0.00 in /  0 mm 94.2 W/m2 OVC
11:00 62.2 °F /  16.8 °C 62.2 °F /  16.8 °C 29.89 in /  1012.1 hPa Calm     100 % 0.00 in /  0 mm 77.5 W/m2 OVC
11:05 62.1 °F /  16.7 °C 62.1 °F /  16.7 °C 29.91 in /  1012.8 hPa Calm     100 % 0.00 in /  0 mm 113.4 W/m2 OVC
11:10 62.1 °F /  16.7 °C 62.1 °F /  16.7 °C 29.91 in /  1012.8 hPa WNW 1.9 mph /  3.1 km/h 1.9 mph /  3.1 km/h 100 % 0.00 in /  0 mm 75.0 W/m2 OVC
11:15 61.9 °F /  16.6 °C 61.9 °F /  16.6 °C 29.90 in /  1012.4 hPa Calm     100 % 0.00 in /  0 mm 97.5 W/m2 OVC
11:20 62.1 °F /  16.7 °C 62.1 °F /  16.7 °C 29.90 in /  1012.4 hPa Calm     100 % 0.00 in /  0 mm 199.3 W/m2 BKN
11:25 62.1 °F /  16.7 °C 62.1 °F /  16.7 °C 29.90 in /  1012.4 hPa ESE 1.1 mph /  1.8 km/h 1.1 mph /  1.8 km/h 100 % 0.00 in /  0 mm 95.0 W/m2 OVC
11:30 62.1 °F /  16.7 °C 62.1 °F /  16.7 °C 29.91 in /  1012.8 hPa Calm     100 % 0.00 in /  0 mm 112.5 W/m2 BKN
11:35 61.9 °F /  16.6 °C 61.9 °F /  16.6 °C 29.91 in /  1012.8 hPa Calm     100 % 0.00 in /  0 mm 235.6 W/m2 BKN
11:40 62.2 °F /  16.8 °C 62.2 °F /  16.8 °C 29.90 in /  1012.4 hPa Calm     100 % 0.00 in /  0 mm 180.0 W/m2 BKN
11:45 62.6 °F /  17 °C 62.6 °F /  17 °C 29.90 in /  1012.4 hPa Calm     100 % 0.00 in /  0 mm 177.5 W/m2 BKN
11:50 62.8 °F /  17.1 °C 62.8 °F /  17.1 °C 29.89 in /  1012.1 hPa SSW 2.5 mph /  4 km/h 2.5 mph /  4 km/h 100 % 0.00 in /  0 mm 489.0 W/m2 BKN
11:55 64.0 °F /  17.8 °C 64.0 °F /  17.8 °C 29.90 in /  1012.4 hPa Calm     100 % 0.00 in /  0 mm 470.0 W/m2 CLR
12:00 64.2 °F /  17.9 °C 64.2 °F /  17.9 °C 29.89 in /  1012.1 hPa Calm     100 % 0.00 in /  0 mm 430.0 W/m2 CLR
12:06 64.4 °F /  18 °C 64.4 °F /  18 °C 29.89 in /  1012.1 hPa ENE 0.1 mph /  0.2 km/h   100 % 0.00 in /  0 mm 287.5 W/m2 SCT
12:11 64.4 °F /  18 °C 63.8 °F /  17.7 °C 29.88 in /  1011.7 hPa Calm     98 % 0.00 in /  0 mm 452.5 W/m2 BKN
12:16 64.6 °F /  18.1 °C 63.7 °F /  17.6 °C 29.90 in /  1012.4 hPa SW 1.0 mph /  1.6 km/h   97 % 0.00 in /  0 mm 749.0 W/m2 CLR
12:21 65.8 °F /  18.8 °C 64.7 °F /  18.2 °C 29.88 in /  1011.7 hPa WSW 3.2 mph /  5.1 km/h 3.2 mph /  5.1 km/h 96 % 0.00 in /  0 mm 400.0 W/m2 CLR
12:26 66.0 °F /  18.9 °C 64.5 °F /  18.1 °C 29.88 in /  1011.7 hPa Calm     95 % 0.00 in /  0 mm 440.0 W/m2 CLR
12:31 66.2 °F /  19 °C 65.0 °F /  18.3 °C 29.90 in /  1012.4 hPa NNW 1.7 mph /  2.7 km/h 1.7 mph /  2.7 km/h 96 % 0.00 in /  0 mm 524.6 W/m2 BKN
12:36 67.1 °F /  19.5 °C 63.7 °F /  17.6 °C 29.89 in /  1012.1 hPa Calm     89 % 0.00 in /  0 mm 485.0 W/m2 CLR
12:41 67.3 °F /  19.6 °C 64.2 °F /  17.9 °C 29.89 in /  1012.1 hPa ESE 1.1 mph /  1.8 km/h 1.1 mph /  1.8 km/h 90 % 0.00 in /  0 mm 480.0 W/m2 CLR
12:46 67.1 °F /  19.5 °C 62.4 °F /  16.9 °C 29.88 in /  1011.7 hPa Calm     85 % 0.00 in /  0 mm 766.0 W/m2 CLR
12:51 66.6 °F /  19.2 °C 62.6 °F /  17 °C 29.88 in /  1011.7 hPa Calm     87 % 0.00 in /  0 mm 292.5 W/m2 BKN
12:56 66.2 °F /  19 °C 62.9 °F /  17.2 °C 29.89 in /  1012.1 hPa Calm     89 % 0.00 in /  0 mm 337.5 W/m2 BKN
13:01 66.2 °F /  19 °C 63.5 °F /  17.5 °C 29.90 in /  1012.4 hPa Calm     91 % 0.00 in /  0 mm 292.5 W/m2 SCT
13:06 66.7 °F /  19.3 °C 63.7 °F /  17.6 °C 29.88 in /  1011.7 hPa Calm     90 % 0.00 in /  0 mm 280.0 W/m2 BKN
13:11 66.6 °F /  19.2 °C 63.5 °F /  17.5 °C 29.89 in /  1012.1 hPa Calm     90 % 0.00 in /  0 mm 391.8 W/m2 BKN
13:16 66.4 °F /  19.1 °C 62.7 °F /  17.1 °C 29.90 in /  1012.4 hPa Calm     88 % 0.00 in /  0 mm 460.0 W/m2 CLR
13:21 67.1 °F /  19.5 °C 62.1 °F /  16.7 °C 29.88 in /  1011.7 hPa West 1.2 mph /  1.9 km/h   84 % 0.00 in /  0 mm 157.5 W/m2 BKN
13:26 66.7 °F /  19.3 °C 62.7 °F /  17.1 °C 29.89 in /  1012.1 hPa ESE 1.2 mph /  1.9 km/h   87 % 0.00 in /  0 mm 372.1 W/m2 BKN
13:31 66.6 °F /  19.2 °C 61.9 °F /  16.6 °C 29.90 in /  1012.4 hPa Calm     85 % 0.00 in /  0 mm 322.5 W/m2 FEW
13:36 66.9 °F /  19.4 °C 63.2 °F /  17.3 °C 29.89 in /  1012.1 hPa South 0.6 mph /  1 km/h 0.6 mph /  1 km/h 88 % 0.00 in /  0 mm 232.5 W/m2 BKN
13:41 66.0 °F /  18.9 °C 63.3 °F /  17.4 °C 29.90 in /  1012.4 hPa Calm     91 % 0.00 in /  0 mm 371.9 W/m2 BKN
13:47 65.8 °F /  18.8 °C 62.5 °F /  16.9 °C 29.89 in /  1012.1 hPa Calm     89 % 0.00 in /  0 mm 327.5 W/m2 CLR
13:52 66.7 °F /  19.3 °C 63.7 °F /  17.6 °C 29.90 in /  1012.4 hPa Calm     90 % 0.00 in /  0 mm 412.5 W/m2 CLR
13:57 68.0 °F /  20 °C 63.3 °F /  17.4 °C 29.89 in /  1012.1 hPa Calm     85 % 0.00 in /  0 mm 757.0 W/m2 CLR
14:02 68.4 °F /  20.2 °C 61.9 °F /  16.6 °C 29.88 in /  1011.7 hPa West 1.4 mph /  2.3 km/h 1.4 mph /  2.3 km/h 80 % 0.00 in /  0 mm 467.5 W/m2 CLR
14:07 68.7 °F /  20.4 °C 61.9 °F /  16.6 °C 29.89 in /  1012.1 hPa Calm     79 % 0.00 in /  0 mm 332.6 W/m2 BKN
14:12 67.8 °F /  19.9 °C 60.7 °F /  15.9 °C 29.88 in /  1011.7 hPa Calm     78 % 0.00 in /  0 mm 294.0 W/m2 BKN
14:17 66.9 °F /  19.4 °C 60.9 °F /  16.1 °C 29.88 in /  1011.7 hPa WNW 1.2 mph /  1.9 km/h   81 % 0.00 in /  0 mm 322.5 W/m2 SCT
14:22 67.8 °F /  19.9 °C 61.1 °F /  16.2 °C 29.89 in /  1012.1 hPa Calm     79 % 0.00 in /  0 mm 736.0 W/m2 CLR
14:27 68.4 °F /  20.2 °C 62.3 °F /  16.8 °C 29.89 in /  1012.1 hPa WNW 3.5 mph /  5.6 km/h 3.5 mph /  5.6 km/h 81 % 0.00 in /  0 mm 455.8 W/m2 BKN
14:32 68.9 °F /  20.5 °C 60.6 °F /  15.9 °C 29.89 in /  1012.1 hPa WSW 4.6 mph /  7.4 km/h 4.6 mph /  7.4 km/h 75 % 0.00 in /  0 mm 385.0 W/m2 CLR
14:37 69.6 °F /  20.9 °C 61.0 °F /  16.1 °C 29.89 in /  1012.1 hPa West 6.2 mph /  10 km/h 6.2 mph /  10 km/h 74 % 0.00 in /  0 mm 458.5 W/m2 BKN
14:42 69.3 °F /  20.7 °C 59.8 °F /  15.4 °C 29.89 in /  1012.1 hPa NNE 1.7 mph /  2.7 km/h 1.7 mph /  2.7 km/h 72 % 0.00 in /  0 mm 714.0 W/m2 CLR
14:47 69.3 °F /  20.7 °C 60.6 °F /  15.9 °C 29.89 in /  1012.1 hPa West 2.5 mph /  4 km/h 2.5 mph /  4 km/h 74 % 0.00 in /  0 mm 495.0 W/m2 BKN
14:52 69.1 °F /  20.6 °C 59.3 °F /  15.2 °C 29.89 in /  1012.1 hPa West 1.2 mph /  1.9 km/h 1.2 mph /  1.9 km/h 71 % 0.00 in /  0 mm 343.8 W/m2 BKN
14:57 68.4 °F /  20.2 °C 60.1 °F /  15.6 °C 29.89 in /  1012.1 hPa Calm     75 % 0.00 in /  0 mm 695.0 W/m2 CLR
15:02 68.4 °F /  20.2 °C 59.4 °F /  15.2 °C 29.90 in /  1012.4 hPa SSE 2.3 mph /  3.7 km/h   73 % 0.00 in /  0 mm 292.5 W/m2 BKN
15:07 68.4 °F /  20.2 °C 58.2 °F /  14.6 °C 29.89 in /  1012.1 hPa West 1.9 mph /  3.1 km/h 1.9 mph /  3.1 km/h 70 % 0.00 in /  0 mm 680.0 W/m2 CLR
15:12 69.1 °F /  20.6 °C 58.9 °F /  14.9 °C 29.90 in /  1012.4 hPa SW 4.7 mph /  7.6 km/h 4.7 mph /  7.6 km/h 70 % 0.00 in /  0 mm 469.4 W/m2 BKN
15:17 68.7 °F /  20.4 °C 59.7 °F /  15.4 °C 29.89 in /  1012.1 hPa WSW 8.7 mph /  14 km/h 8.7 mph /  14 km/h 73 % 0.00 in /  0 mm 257.5 W/m2 BKN
15:22 68.2 °F /  20.1 °C 60.0 °F /  15.6 °C 29.89 in /  1012.1 hPa WSW 3.6 mph /  5.8 km/h 3.6 mph /  5.8 km/h 75 % 0.00 in /  0 mm 507.4 W/m2 SCT
15:27 68.7 °F /  20.4 °C 58.5 °F /  14.7 °C 29.89 in /  1012.1 hPa NW 6.2 mph /  10 km/h 6.2 mph /  10 km/h 70 % 0.00 in /  0 mm 648.0 W/m2 CLR
15:33 68.7 °F /  20.4 °C 58.5 °F /  14.7 °C 29.89 in /  1012.1 hPa West 8.1 mph /  13 km/h 8.1 mph /  13 km/h 70 % 0.00 in /  0 mm 205.0 W/m2 BKN
15:38 67.8 °F /  19.9 °C 59.6 °F /  15.3 °C 29.89 in /  1012.1 hPa South 1.2 mph /  1.9 km/h   75 % 0.00 in /  0 mm 469.7 W/m2 SCT
15:43 68.5 °F /  20.3 °C 60.3 °F /  15.7 °C 29.89 in /  1012.1 hPa NNE 2.3 mph /  3.7 km/h 2.3 mph /  3.7 km/h 75 % 0.00 in /  0 mm 312.5 W/m2 BKN
15:48 68.9 °F /  20.5 °C 59.9 °F /  15.5 °C 29.90 in /  1012.4 hPa West 2.5 mph /  4 km/h 2.5 mph /  4 km/h 73 % 0.00 in /  0 mm 331.4 W/m2 BKN
15:53 68.4 °F /  20.2 °C 57.8 °F /  14.3 °C 29.90 in /  1012.4 hPa WNW 3.5 mph /  5.6 km/h 3.5 mph /  5.6 km/h 69 % 0.00 in /  0 mm 310.2 W/m2 BKN
15:58 67.8 °F /  19.9 °C 59.2 °F /  15.1 °C 29.90 in /  1012.4 hPa NW 2.5 mph /  4 km/h 2.5 mph /  4 km/h 74 % 0.00 in /  0 mm 187.5 W/m2 BKN
16:03 67.6 °F /  19.8 °C 58.7 °F /  14.8 °C 29.89 in /  1012.1 hPa WSW 3.3 mph /  5.3 km/h 3.3 mph /  5.3 km/h 73 % 0.00 in /  0 mm 190.7 W/m2 BKN
16:08 67.3 °F /  19.6 °C 59.1 °F /  15.1 °C 29.90 in /  1012.4 hPa West 1.4 mph /  2.3 km/h 1.4 mph /  2.3 km/h 75 % 0.00 in /  0 mm 195.3 W/m2 BKN
16:13 67.1 °F /  19.5 °C 60.0 °F /  15.6 °C 29.90 in /  1012.4 hPa Calm     78 % 0.00 in /  0 mm 192.5 W/m2 BKN
16:18 67.1 °F /  19.5 °C 58.9 °F /  14.9 °C 29.90 in /  1012.4 hPa SSE 1.4 mph /  2.3 km/h 1.4 mph /  2.3 km/h 75 % 0.00 in /  0 mm 242.9 W/m2 BKN
16:23 67.1 °F /  19.5 °C 58.9 °F /  14.9 °C 29.90 in /  1012.4 hPa ENE 1.2 mph /  1.9 km/h 1.2 mph /  1.9 km/h 75 % 0.00 in /  0 mm 247.5 W/m2 BKN
16:28 67.5 °F /  19.7 °C 58.5 °F /  14.7 °C 29.90 in /  1012.4 hPa WSW 4.4 mph /  7.1 km/h 4.4 mph /  7.1 km/h 73 % 0.00 in /  0 mm 222.5 W/m2 BKN
16:33 66.9 °F /  19.4 °C 60.2 °F /  15.7 °C 29.90 in /  1012.4 hPa SW 1.2 mph /  1.9 km/h 1.2 mph /  1.9 km/h 79 % 0.00 in /  0 mm 142.3 W/m2 BKN
16:38 66.6 °F /  19.2 °C 58.4 °F /  14.7 °C 29.89 in /  1012.1 hPa SW 3.7 mph /  6 km/h 3.7 mph /  6 km/h 75 % 0.00 in /  0 mm 157.7 W/m2 BKN
16:43 66.9 °F /  19.4 °C 58.7 °F /  14.8 °C 29.90 in /  1012.4 hPa WNW 2.8 mph /  4.5 km/h 2.8 mph /  4.5 km/h 75 % 0.00 in /  0 mm 147.5 W/m2 BKN
16:48 66.6 °F /  19.2 °C 59.1 °F /  15.1 °C 29.90 in /  1012.4 hPa SE 1.2 mph /  1.9 km/h 1.2 mph /  1.9 km/h 77 % 0.00 in /  0 mm 151.5 W/m2 BKN
16:53 66.4 °F /  19.1 °C 61.4 °F /  16.3 °C 29.91 in /  1012.8 hPa West 0.3 mph /  0.5 km/h 0.3 mph /  0.5 km/h 84 % 0.00 in /  0 mm 140.9 W/m2 BKN
16:58 66.7 °F /  19.3 °C 58.2 °F /  14.6 °C 29.90 in /  1012.4 hPa SE 2.3 mph /  3.7 km/h 2.3 mph /  3.7 km/h 74 % 0.00 in /  0 mm 172.5 W/m2 BKN
17:03 67.5 °F /  19.7 °C 58.5 °F /  14.7 °C 29.89 in /  1012.1 hPa West 2.3 mph /  3.7 km/h 2.3 mph /  3.7 km/h 73 % 0.00 in /  0 mm 171.5 W/m2 BKN
17:09 67.1 °F /  19.5 °C 58.5 °F /  14.7 °C 29.90 in /  1012.4 hPa WSW 2.9 mph /  4.7 km/h 2.9 mph /  4.7 km/h 74 % 0.00 in /  0 mm 127.5 W/m2 OVC
17:14 66.2 °F /  19 °C 58.4 °F /  14.7 °C 29.90 in /  1012.4 hPa NW 1.9 mph /  3.1 km/h 1.9 mph /  3.1 km/h 76 % 0.00 in /  0 mm 117.5 W/m2 BKN
17:19 66.0 °F /  18.9 °C 59.3 °F /  15.2 °C 29.90 in /  1012.4 hPa West 1.2 mph /  1.9 km/h 1.2 mph /  1.9 km/h 79 % 0.00 in /  0 mm 126.5 W/m2 BKN
17:24 66.0 °F /  18.9 °C 59.3 °F /  15.2 °C 29.90 in /  1012.4 hPa Calm     79 % 0.00 in /  0 mm 137.5 W/m2 BKN
17:29 65.8 °F /  18.8 °C 59.8 °F /  15.4 °C 29.89 in /  1012.1 hPa West 1.2 mph /  1.9 km/h   81 % 0.00 in /  0 mm 112.5 W/m2 BKN
17:34 66.2 °F /  19 °C 57.7 °F /  14.3 °C 29.90 in /  1012.4 hPa ESE 1.0 mph /  1.6 km/h 1.0 mph /  1.6 km/h 74 % 0.00 in /  0 mm 135.1 W/m2 BKN
17:39 66.6 °F /  19.2 °C 58.4 °F /  14.7 °C 29.89 in /  1012.1 hPa SW 1.2 mph /  1.9 km/h   75 % 0.00 in /  0 mm 160.0 W/m2 BKN
17:44 66.2 °F /  19 °C 59.1 °F /  15.1 °C 29.89 in /  1012.1 hPa West 2.3 mph /  3.7 km/h 2.3 mph /  3.7 km/h 78 % 0.00 in /  0 mm 150.0 W/m2 OVC
17:49 65.7 °F /  18.7 °C 58.3 °F /  14.6 °C 29.89 in /  1012.1 hPa SW 1.2 mph /  1.9 km/h 1.2 mph /  1.9 km/h 77 % 0.00 in /  0 mm 50.3 W/m2 OVC
17:54 65.3 °F /  18.5 °C 56.4 °F /  13.6 °C 29.90 in /  1012.4 hPa WSW 1.4 mph /  2.3 km/h 1.4 mph /  2.3 km/h 73 % 0.00 in /  0 mm 137.5 W/m2 OVC
17:59 65.1 °F /  18.4 °C 58.4 °F /  14.7 °C 29.90 in /  1012.4 hPa West 1.2 mph /  1.9 km/h   79 % 0.00 in /  0 mm 122.5 W/m2 OVC
18:04 64.9 °F /  18.3 °C 60.0 °F /  15.6 °C 29.90 in /  1012.4 hPa Calm     84 % 0.00 in /  0 mm 115.0 W/m2 OVC
18:09 64.8 °F /  18.2 °C 59.8 °F /  15.4 °C 29.90 in /  1012.4 hPa Calm     84 % 0.00 in /  0 mm 172.5 W/m2 BKN
18:14 65.3 °F /  18.5 °C 59.3 °F /  15.2 °C 29.90 in /  1012.4 hPa West 1.2 mph /  1.9 km/h   81 % 0.00 in /  0 mm 51.0 W/m2 OVC
18:19 65.3 °F /  18.5 °C 56.8 °F /  13.8 °C 29.90 in /  1012.4 hPa Calm     74 % 0.00 in /  0 mm 125.0 W/m2 OVC
18:24 64.9 °F /  18.3 °C 57.2 °F /  14 °C 29.89 in /  1012.1 hPa WNW 2.1 mph /  3.4 km/h 2.1 mph /  3.4 km/h 76 % 0.00 in /  0 mm 125.0 W/m2 OVC
18:29 64.8 °F /  18.2 °C 56.6 °F /  13.7 °C 29.90 in /  1012.4 hPa West 5.8 mph /  9.3 km/h 5.8 mph /  9.3 km/h 75 % 0.00 in /  0 mm 23.8 W/m2 OVC
18:34 64.4 °F /  18 °C 56.3 °F /  13.5 °C 29.91 in /  1012.8 hPa West 9.4 mph /  15.1 km/h 9.4 mph /  15.1 km/h 75 % 0.00 in /  0 mm 102.5 W/m2 OVC
18:39 63.9 °F /  17.7 °C 56.1 °F /  13.4 °C 29.91 in /  1012.8 hPa ESE 1.2 mph /  1.9 km/h 1.2 mph /  1.9 km/h 76 % 0.00 in /  0 mm 105.0 W/m2 OVC
18:44 63.0 °F /  17.2 °C 58.4 °F /  14.7 °C 29.90 in /  1012.4 hPa Calm     85 % 0.00 in /  0 mm 14.3 W/m2 OVC
18:50 62.6 °F /  17 °C 57.4 °F /  14.1 °C 29.91 in /  1012.8 hPa WSW 2.8 mph /  4.5 km/h 2.8 mph /  4.5 km/h 83 % 0.00 in /  0 mm 90.0 W/m2 OVC
18:55 63.0 °F /  17.2 °C 56.0 °F /  13.3 °C 29.91 in /  1012.8 hPa WSW 4.6 mph /  7.4 km/h 4.6 mph /  7.4 km/h 78 % 0.00 in /  0 mm 85.0 W/m2 OVC
19:00 62.4 °F /  16.9 °C 56.9 °F /  13.8 °C 29.92 in /  1013.1 hPa WNW 1.2 mph /  1.9 km/h   82 % 0.00 in /  0 mm 7.9 W/m2 OVC
19:05 62.4 °F /  16.9 °C 56.2 °F /  13.4 °C 29.91 in /  1012.8 hPa WSW 1.2 mph /  1.9 km/h   80 % 0.00 in /  0 mm 67.5 W/m2 CLR
19:10 62.1 °F /  16.7 °C 57.2 °F /  14 °C 29.91 in /  1012.8 hPa Calm     84 % 0.00 in /  0 mm 4.7 W/m2 CLR
19:14 61.5 °F /  16.4 °C 57.9 °F /  14.4 °C 29.91 in /  1012.8 hPa WNW 2.3 mph /  3.7 km/h 2.3 mph /  3.7 km/h 88 % 0.00 in /  0 mm 4.4 W/m2 CLR
19:19 61.0 °F /  16.1 °C 58.0 °F /  14.4 °C 29.91 in /  1012.8 hPa Calm     90 % 0.00 in /  0 mm 52.5 W/m2 CLR
19:24 60.6 °F /  15.9 °C 58.3 °F /  14.6 °C 29.92 in /  1013.1 hPa Calm     92 % 0.00 in /  0 mm 2.8 W/m2 CLR
19:29 60.3 °F /  15.7 °C 57.9 °F /  14.4 °C 29.91 in /  1012.8 hPa Calm     92 % 0.00 in /  0 mm 2.3 W/m2 CLR
19:34 59.9 °F /  15.5 °C 57.9 °F /  14.4 °C 29.93 in /  1013.4 hPa Calm     93 % 0.00 in /  0 mm 42.5 W/m2 CLR
19:39 59.4 °F /  15.2 °C 57.3 °F /  14.1 °C 29.92 in /  1013.1 hPa Calm     93 % 0.00 in /  0 mm 1.3 W/m2 CLR
19:44 59.0 °F /  15 °C 57.6 °F /  14.2 °C 29.90 in /  1012.4 hPa Calm     95 % 0.00 in /  0 mm 0.7 W/m2 CLR
19:49 58.8 °F /  14.9 °C 57.7 °F /  14.3 °C 29.90 in /  1012.4 hPa Calm     96 % 0.00 in /  0 mm 30.0 W/m2 CLR
19:54 58.5 °F /  14.7 °C 57.3 °F /  14.1 °C 29.91 in /  1012.8 hPa Calm     96 % 0.00 in /  0 mm 0.2 W/m2 CLR
19:59 58.3 °F /  14.6 °C 57.1 °F /  13.9 °C 29.91 in /  1012.8 hPa Calm     96 % 0.00 in /  0 mm 0.0 W/m2 CLR
20:04 57.9 °F /  14.4 °C 56.5 °F /  13.6 °C 29.91 in /  1012.8 hPa Calm     95 % 0.00 in /  0 mm 0.0 W/m2 CLR
20:09 57.7 °F /  14.3 °C 56.6 °F /  13.7 °C 29.92 in /  1013.1 hPa Calm     96 % 0.00 in /  0 mm 0.0 W/m2 CLR
20:14 57.6 °F /  14.2 °C 56.4 °F /  13.6 °C 29.91 in /  1012.8 hPa WNW 0.4 mph /  0.6 km/h   96 % 0.00 in /  0 mm 20.0 W/m2 CLR
20:19 57.2 °F /  14 °C 56.4 °F /  13.6 °C 29.92 in /  1013.1 hPa Calm     97 % 0.00 in /  0 mm 20.0 W/m2 CLR
20:24 57.2 °F /  14 °C 56.4 °F /  13.6 °C 29.92 in /  1013.1 hPa WNW 4.6 mph /  7.4 km/h 4.6 mph /  7.4 km/h 97 % 0.00 in /  0 mm 0.0 W/m2 CLR
20:29 57.6 °F /  14.2 °C 56.1 °F /  13.4 °C 29.93 in /  1013.4 hPa NW 1.2 mph /  1.9 km/h 1.2 mph /  1.9 km/h 95 % 0.00 in /  0 mm 0.0 W/m2 CLR
20:34 57.2 °F /  14 °C 56.1 °F /  13.4 °C 29.93 in /  1013.4 hPa Calm     96 % 0.00 in /  0 mm 17.5 W/m2 CLR
20:40 57.0 °F /  13.9 °C 55.9 °F /  13.3 °C 29.92 in /  1013.1 hPa Calm     96 % 0.00 in /  0 mm 0.0 W/m2 CLR
20:45 57.0 °F /  13.9 °C 55.9 °F /  13.3 °C 29.93 in /  1013.4 hPa NNW 1.2 mph /  1.9 km/h 1.2 mph /  1.9 km/h 96 % 0.00 in /  0 mm 0.0 W/m2 CLR
20:50 56.8 °F /  13.8 °C 55.7 °F /  13.2 °C 29.94 in /  1013.8 hPa West 2.5 mph /  4 km/h 2.5 mph /  4 km/h 96 % 0.00 in /  0 mm 0.0 W/m2 CLR
20:55 57.0 °F /  13.9 °C 55.9 °F /  13.3 °C 29.94 in /  1013.8 hPa NW 0.4 mph /  0.6 km/h   96 % 0.00 in /  0 mm 0.0 W/m2 CLR
21:00 57.0 °F /  13.9 °C 55.6 °F /  13.1 °C 29.93 in /  1013.4 hPa Calm     95 % 0.00 in /  0 mm 0.0 W/m2 CLR
21:06 57.0 °F /  13.9 °C 55.3 °F /  12.9 °C 29.93 in /  1013.4 hPa WNW 1.2 mph /  1.9 km/h 1.2 mph /  1.9 km/h 94 % 0.00 in /  0 mm 0.0 W/m2 CLR
21:11 57.0 °F /  13.9 °C 55.3 °F /  12.9 °C 29.95 in /  1014.1 hPa Calm     94 % 0.00 in /  0 mm 0.0 W/m2 CLR
21:17 57.0 °F /  13.9 °C 55.3 °F /  12.9 °C 29.94 in /  1013.8 hPa Calm     94 % 0.00 in /  0 mm 17.5 W/m2 CLR
21:22 56.7 °F /  13.7 °C 55.2 °F /  12.9 °C 29.94 in /  1013.8 hPa Calm     95 % 0.00 in /  0 mm 0.0 W/m2 CLR
21:27 56.1 °F /  13.4 °C 55.3 °F /  12.9 °C 29.94 in /  1013.8 hPa Calm     97 % 0.00 in /  0 mm 0.0 W/m2 CLR
21:32 55.8 °F /  13.2 °C 55.2 °F /  12.9 °C 29.93 in /  1013.4 hPa Calm     98 % 0.00 in /  0 mm 17.5 W/m2 CLR
21:37 55.6 °F /  13.1 °C 55.0 °F /  12.8 °C 29.95 in /  1014.1 hPa Calm     98 % 0.00 in /  0 mm 0.0 W/m2 CLR
21:43 55.4 °F /  13 °C 54.8 °F /  12.7 °C 29.95 in /  1014.1 hPa Calm     98 % 0.00 in /  0 mm 0.0 W/m2 CLR
21:48 55.2 °F /  12.9 °C 54.7 °F /  12.6 °C 29.95 in /  1014.1 hPa Calm     98 % 0.00 in /  0 mm 0.0 W/m2 CLR
21:53 54.9 °F /  12.7 °C 54.9 °F /  12.7 °C 29.95 in /  1014.1 hPa Calm     100 % 0.00 in /  0 mm 0.0 W/m2 CLR
21:58 54.5 °F /  12.5 °C 54.5 °F /  12.5 °C 29.95 in /  1014.1 hPa Calm     100 % 0.00 in /  0 mm 22.5 W/m2 CLR
22:03 54.3 °F /  12.4 °C 54.3 °F /  12.4 °C 29.94 in /  1013.8 hPa Calm     100 % 0.00 in /  0 mm 0.0 W/m2 CLR
Wether-Above
Compliments of Weather Underground - 2.25 mb
Welcome to Weather-Above
Cheddleton weather station supplies various organisations with data from our weather station one of them is the weather Underground this information displayed here is coming from the weather Underground server 

If any information is used please acknowledge the source to www weather-above.com or weather Underground